createdAt,value
2019-05-05T00:00:39.088Z,3.79
2019-05-05T00:03:16.082Z,3.79
2019-05-05T00:05:47.298Z,3.79
2019-05-05T00:08:16.785Z,3.77
2019-05-05T00:11:05.074Z,3.72
2019-05-05T00:13:36.504Z,3.70
2019-05-05T00:16:25.549Z,3.59
2019-05-05T00:18:56.054Z,3.50
2019-05-05T00:21:25.646Z,3.41
2019-05-05T00:23:55.461Z,3.38
2019-05-05T00:26:25.038Z,3.31
2019-05-05T00:28:55.344Z,3.24
2019-05-05T00:31:24.880Z,3.25
2019-05-05T00:33:54.575Z,3.40
2019-05-05T00:36:24.772Z,3.49
2019-05-05T00:38:55.950Z,3.57
2019-05-05T00:41:27.050Z,3.55
2019-05-05T00:43:56.467Z,3.54
2019-05-05T00:46:44.673Z,3.53
2019-05-05T00:49:14.623Z,3.52
2019-05-05T00:51:44.425Z,3.46
2019-05-05T00:54:14.900Z,3.45
2019-05-05T00:56:45.152Z,3.42
2019-05-05T00:59:16.367Z,3.41
2019-05-05T01:01:49.927Z,3.43
2019-05-05T01:04:21.039Z,3.38
2019-05-05T01:06:50.714Z,3.33
2019-05-05T01:09:25.688Z,3.33
2019-05-05T01:11:55.991Z,3.37
2019-05-05T01:14:25.480Z,3.48
2019-05-05T01:16:54.927Z,3.42
2019-05-05T01:19:24.431Z,3.46
2019-05-05T01:21:54.506Z,3.52
2019-05-05T01:24:24.893Z,3.58
2019-05-05T01:26:55.131Z,3.64
2019-05-05T01:29:26.183Z,3.65
2019-05-05T01:31:57.536Z,3.64
2019-05-05T01:34:28.741Z,3.70
2019-05-05T01:37:01.248Z,3.76
2019-05-05T01:39:38.145Z,3.88
2019-05-05T01:42:09.456Z,4.10
2019-05-05T01:44:39.198Z,4.20
2019-05-05T01:47:09.978Z,4.11
2019-05-05T01:49:39.510Z,4.10
2019-05-05T01:52:09.036Z,4.12
2019-05-05T01:54:38.457Z,4.12
2019-05-05T01:57:08.375Z,4.09
2019-05-05T01:59:38.391Z,4.18
2019-05-05T02:02:07.954Z,4.22
2019-05-05T02:04:37.460Z,4.68
2019-05-05T02:07:06.972Z,4.79
2019-05-05T02:09:36.507Z,4.92
2019-05-05T02:12:06.395Z,5.04
2019-05-05T02:14:35.998Z,5.06
2019-05-05T02:17:05.599Z,5.11
2019-05-05T02:19:35.199Z,5.13
2019-05-05T02:22:07.784Z,5.23
2019-05-05T02:24:37.529Z,5.30
2019-05-05T02:27:07.146Z,5.42
2019-05-05T02:29:54.863Z,5.48
2019-05-05T02:32:38.122Z,5.42
2019-05-05T02:35:16.857Z,5.51
2019-05-05T02:37:47.138Z,5.52
2019-05-05T02:40:18.316Z,5.57
2019-05-05T02:42:48.866Z,5.66
2019-05-05T02:45:35.285Z,5.74
2019-05-05T02:48:06.505Z,5.61
2019-05-05T02:50:52.441Z,5.64
2019-05-05T02:53:14.304Z,5.63
2019-05-05T02:55:44.219Z,5.56
2019-05-05T02:58:14.809Z,5.70
2019-05-05T03:00:54.884Z,5.61
2019-05-05T03:03:24.972Z,5.50
2019-05-05T03:05:55.748Z,5.31
2019-05-05T03:08:26.294Z,5.17
2019-05-05T03:10:58.106Z,4.97
2019-05-05T03:13:33.638Z,4.92
2019-05-05T03:16:18.623Z,4.80
2019-05-05T03:18:48.796Z,4.67
2019-05-05T03:21:20.521Z,4.66
2019-05-05T03:23:50.488Z,4.60
2019-05-05T03:26:20.544Z,4.58
2019-05-05T03:28:52.075Z,4.58
2019-05-05T03:31:26.191Z,4.63
2019-05-05T03:33:55.142Z,4.68
2019-05-05T03:36:26.034Z,4.70
2019-05-05T03:38:56.228Z,4.67
2019-05-05T03:41:29.052Z,4.63
2019-05-05T03:44:18.987Z,4.56
2019-05-05T03:46:49.051Z,4.55
2019-05-05T03:49:19.151Z,4.50
2019-05-05T03:51:48.725Z,4.47
2019-05-05T03:54:19.303Z,4.42
2019-05-05T03:56:51.102Z,4.42
2019-05-05T03:59:20.691Z,4.34
2019-05-05T04:01:54.697Z,4.34
2019-05-05T04:04:35.320Z,4.33
2019-05-05T04:07:04.958Z,4.32
2019-05-05T04:09:34.735Z,4.35
2019-05-05T04:12:04.592Z,4.35
2019-05-05T04:14:34.853Z,4.41
2019-05-05T04:17:24.414Z,4.48
2019-05-05T04:19:57.879Z,4.46
2019-05-05T04:22:29.732Z,4.54
2019-05-05T04:24:59.139Z,4.57
2019-05-05T04:27:30.695Z,4.52
2019-05-05T04:30:00.117Z,4.49
2019-05-05T04:32:29.800Z,4.47
2019-05-05T04:34:59.210Z,4.40
2019-05-05T04:37:28.668Z,4.35
2019-05-05T04:39:58.070Z,4.38
2019-05-05T04:42:27.513Z,4.43
2019-05-05T04:44:56.921Z,4.52
2019-05-05T04:47:28.021Z,4.58
2019-05-05T04:49:59.142Z,4.69
2019-05-05T04:52:31.417Z,4.89
2019-05-05T04:55:00.829Z,4.98
2019-05-05T04:57:30.345Z,5.05
2019-05-05T04:59:59.760Z,5.16
2019-05-05T05:02:34.134Z,5.24
2019-05-05T05:05:06.493Z,5.42
2019-05-05T05:07:35.966Z,5.42
2019-05-05T05:10:08.594Z,5.45
2019-05-05T05:12:38.035Z,5.49
2019-05-05T05:15:07.619Z,5.49
2019-05-05T05:17:41.688Z,5.60
2019-05-05T05:20:14.025Z,5.50
2019-05-05T05:22:43.990Z,5.52
2019-05-05T05:25:13.784Z,5.49
2019-05-05T05:27:44.349Z,5.55
2019-05-05T05:30:14.299Z,5.53
2019-05-05T05:32:44.514Z,5.60
2019-05-05T05:35:14.369Z,5.68
2019-05-05T05:37:44.762Z,5.77
2019-05-05T05:40:19.349Z,5.89
2019-05-05T05:42:49.446Z,6.10
2019-05-05T05:45:20.539Z,6.51
2019-05-05T05:47:59.062Z,6.89
2019-05-05T05:50:35.875Z,7.16
2019-05-05T05:53:05.510Z,7.18
2019-05-05T05:55:34.990Z,7.04
2019-05-05T05:58:04.940Z,6.86
2019-05-05T06:00:34.578Z,6.75
2019-05-05T06:03:04.111Z,6.67
2019-05-05T06:05:34.518Z,6.63
2019-05-05T06:08:04.730Z,6.60
2019-05-05T06:10:34.435Z,6.61
2019-05-05T06:13:04.279Z,6.64
2019-05-05T06:15:35.070Z,6.71
2019-05-05T06:18:07.624Z,6.77
2019-05-05T06:20:37.026Z,6.84
2019-05-05T06:23:06.472Z,6.90
2019-05-05T06:25:38.121Z,7.06
2019-05-05T06:28:07.709Z,7.25
2019-05-05T06:30:37.118Z,7.25
2019-05-05T06:33:06.749Z,7.30
2019-05-05T06:35:36.271Z,7.19
2019-05-05T06:38:05.730Z,7.07
2019-05-05T06:40:48.943Z,7.04
2019-05-05T06:43:25.044Z,7.19
2019-05-05T06:45:58.623Z,7.47
2019-05-05T06:48:28.086Z,7.85
2019-05-05T06:50:57.557Z,8.03
2019-05-05T06:53:26.971Z,8.14
2019-05-05T06:55:56.420Z,8.27
2019-05-05T06:58:25.845Z,8.25
2019-05-05T07:00:55.301Z,8.37
2019-05-05T07:03:24.715Z,8.34
2019-05-05T07:05:54.162Z,8.39
2019-05-05T07:08:24.415Z,8.57
2019-05-05T07:10:54.886Z,8.61
2019-05-05T07:13:24.539Z,8.77
2019-05-05T07:15:54.360Z,8.90
2019-05-05T07:18:25.403Z,9.01
2019-05-05T07:20:56.382Z,8.91
2019-05-05T07:23:25.805Z,8.83
2019-05-05T07:25:55.363Z,8.59
2019-05-05T07:28:24.823Z,8.59
2019-05-05T07:30:54.811Z,8.58
2019-05-05T07:33:24.530Z,8.51
2019-05-05T07:36:06.145Z,8.57
2019-05-05T07:38:35.715Z,8.58
2019-05-05T07:41:05.294Z,8.46
2019-05-05T07:43:34.761Z,8.43
2019-05-05T07:46:04.597Z,8.48
2019-05-05T07:48:34.051Z,8.42
2019-05-05T07:51:05.182Z,8.37
2019-05-05T07:53:35.250Z,8.22
2019-05-05T07:56:07.490Z,8.20
2019-05-05T07:58:37.395Z,8.64
2019-05-05T08:01:06.828Z,8.85
2019-05-05T08:03:36.287Z,8.99
2019-05-05T08:06:08.706Z,9.01
2019-05-05T08:08:38.312Z,9.32
2019-05-05T08:11:07.768Z,9.26
2019-05-05T08:13:37.334Z,9.27
2019-05-05T08:16:26.483Z,9.41
2019-05-05T08:18:57.648Z,9.41
2019-05-05T08:21:27.099Z,9.69
2019-05-05T08:23:58.192Z,9.54
2019-05-05T08:26:29.288Z,9.62
2019-05-05T08:29:04.637Z,9.81
2019-05-05T08:31:48.065Z,9.82
2019-05-05T08:34:20.249Z,10.04
2019-05-05T08:36:49.684Z,9.83
2019-05-05T08:39:21.454Z,9.31
2019-05-05T08:41:50.378Z,9.93
2019-05-05T08:44:19.834Z,10.22
2019-05-05T08:46:49.294Z,10.27
2019-05-05T08:49:18.888Z,10.16
2019-05-05T08:51:48.395Z,10.03
2019-05-05T08:54:17.841Z,10.27
2019-05-05T08:56:47.277Z,10.33
2019-05-05T08:59:16.741Z,10.90
2019-05-05T09:01:46.155Z,10.81
2019-05-05T09:04:15.614Z,10.69
2019-05-05T09:06:45.090Z,10.07
2019-05-05T09:09:14.631Z,10.15
2019-05-05T09:11:44.094Z,10.30
2019-05-05T09:14:14.935Z,10.26
2019-05-05T09:16:44.977Z,10.43
2019-05-05T09:19:16.039Z,10.59
2019-05-05T09:21:45.506Z,10.55
2019-05-05T09:24:16.752Z,9.88
2019-05-05T09:26:49.237Z,9.72
2019-05-05T09:29:26.753Z,9.60
2019-05-05T09:31:56.237Z,10.66
2019-05-05T09:34:25.783Z,10.61
2019-05-05T09:36:55.425Z,10.73
2019-05-05T09:39:24.886Z,10.65
2019-05-05T09:41:54.343Z,10.65
2019-05-05T09:44:24.263Z,10.61
2019-05-05T09:46:55.425Z,10.28
2019-05-05T09:49:26.331Z,10.17
2019-05-05T09:51:56.005Z,9.89
2019-05-05T09:54:25.497Z,9.83
2019-05-05T09:56:57.820Z,9.89
2019-05-05T09:59:27.231Z,9.93
2019-05-05T10:01:56.706Z,9.96
2019-05-05T10:04:27.709Z,10.18
2019-05-05T10:06:57.261Z,10.39
2019-05-05T10:09:26.705Z,10.46
2019-05-05T10:11:56.182Z,10.34
2019-05-05T10:14:25.627Z,10.38
2019-05-05T10:16:55.140Z,10.47
2019-05-05T10:19:26.208Z,10.59
2019-05-05T10:21:57.202Z,10.74
2019-05-05T10:24:35.421Z,10.80
2019-05-05T10:27:05.118Z,10.79
2019-05-05T10:29:34.560Z,11.10
2019-05-05T10:32:04.718Z,10.94
2019-05-05T10:34:36.041Z,10.74
2019-05-05T10:37:05.662Z,10.64
2019-05-05T10:39:36.791Z,10.57
2019-05-05T10:42:06.382Z,10.34
2019-05-05T10:44:35.786Z,10.09
2019-05-05T10:47:05.331Z,10.03
2019-05-05T10:49:34.770Z,9.63
2019-05-05T10:52:04.342Z,9.52
2019-05-05T10:54:43.341Z,9.34
2019-05-05T10:57:06.504Z,8.90
2019-05-05T10:59:35.922Z,8.35
2019-05-05T11:02:05.603Z,7.89
2019-05-05T11:04:35.230Z,7.63
2019-05-05T11:07:04.739Z,7.41
2019-05-05T11:09:34.719Z,7.32
2019-05-05T11:12:04.326Z,7.29
2019-05-05T11:14:33.872Z,7.68
2019-05-05T11:17:04.307Z,8.29
2019-05-05T11:19:34.002Z,8.70
2019-05-05T11:22:04.939Z,9.08
2019-05-05T11:24:34.663Z,9.29
2019-05-05T11:27:04.576Z,9.24
2019-05-05T11:29:35.736Z,9.33
2019-05-05T11:32:06.898Z,9.42
2019-05-05T11:34:36.307Z,9.27
2019-05-05T11:37:08.237Z,9.38
2019-05-05T11:39:37.723Z,10.10
2019-05-05T11:42:07.352Z,10.34
2019-05-05T11:44:36.780Z,10.86
2019-05-05T11:47:06.259Z,11.13
2019-05-05T11:49:35.643Z,11.22
2019-05-05T11:52:05.196Z,11.35
2019-05-05T11:54:34.649Z,10.99
2019-05-05T11:57:04.521Z,11.19
2019-05-05T11:59:34.079Z,10.98
2019-05-05T12:02:05.217Z,11.40
2019-05-05T12:04:34.627Z,10.89
2019-05-05T12:07:05.730Z,11.62
2019-05-05T12:09:36.851Z,12.20
2019-05-05T12:12:07.870Z,11.03
2019-05-05T12:14:37.422Z,10.83
2019-05-05T12:17:06.948Z,11.69
2019-05-05T12:19:36.378Z,12.76
2019-05-05T12:22:05.868Z,12.93
2019-05-05T12:24:38.470Z,12.98
2019-05-05T12:27:15.766Z,12.72
2019-05-05T12:29:47.781Z,12.40
2019-05-05T12:32:17.231Z,11.68
2019-05-05T12:34:46.671Z,11.98
2019-05-05T12:37:16.110Z,12.40
2019-05-05T12:39:45.638Z,12.19
2019-05-05T12:42:15.097Z,11.84
2019-05-05T12:44:46.209Z,11.71
2019-05-05T12:47:18.878Z,11.63
2019-05-05T12:49:48.331Z,11.78
2019-05-05T12:52:17.812Z,11.74
2019-05-05T12:54:47.386Z,10.91
2019-05-05T12:57:17.030Z,10.84
2019-05-05T12:59:46.537Z,11.36
2019-05-05T13:02:16.019Z,12.11
2019-05-05T13:04:45.608Z,12.43
2019-05-05T13:07:15.025Z,12.09
2019-05-05T13:09:44.465Z,12.86
2019-05-05T13:12:14.980Z,13.54
2019-05-05T13:14:44.636Z,12.87
2019-05-05T13:17:14.352Z,12.61
2019-05-05T13:19:48.445Z,12.79
2019-05-05T13:22:34.874Z,12.29
2019-05-05T13:25:24.426Z,12.74
2019-05-05T13:27:57.304Z,12.67
2019-05-05T13:30:26.631Z,12.94
2019-05-05T13:32:56.050Z,12.76
2019-05-05T13:35:25.640Z,12.89
2019-05-05T13:37:55.131Z,12.72
2019-05-05T13:40:24.642Z,12.51
2019-05-05T13:42:54.691Z,12.02
2019-05-05T13:45:26.094Z,12.08
2019-05-05T13:47:55.643Z,12.53
2019-05-05T13:50:29.335Z,12.37
2019-05-05T13:52:58.812Z,12.68
2019-05-05T13:55:28.269Z,12.71
2019-05-05T13:57:57.741Z,12.97
2019-05-05T14:00:28.135Z,12.20
2019-05-05T14:02:57.549Z,12.44
2019-05-05T14:05:26.990Z,12.75
2019-05-05T14:07:56.403Z,13.29
2019-05-05T14:10:25.858Z,13.99
2019-05-05T14:12:55.272Z,13.77
2019-05-05T14:15:24.772Z,13.96
2019-05-05T14:17:54.415Z,13.31
2019-05-05T14:20:24.307Z,13.19
2019-05-05T14:22:54.356Z,13.05
2019-05-05T14:25:26.440Z,13.10
2019-05-05T14:27:56.037Z,13.43
2019-05-05T14:30:46.351Z,12.19
2019-05-05T14:33:20.353Z,11.58
2019-05-05T14:36:08.364Z,11.50
2019-05-05T14:38:44.334Z,10.44
2019-05-05T14:41:13.720Z,10.28
2019-05-05T14:43:43.844Z,9.80
2019-05-05T14:46:14.490Z,10.01
2019-05-05T14:48:44.215Z,10.21
2019-05-05T14:51:14.547Z,10.47
2019-05-05T14:53:45.698Z,11.36
2019-05-05T14:56:15.246Z,11.71
2019-05-05T14:58:44.767Z,11.33
2019-05-05T15:01:15.186Z,10.87
2019-05-05T15:03:44.652Z,10.49
2019-05-05T15:06:17.924Z,10.52
2019-05-05T15:08:54.633Z,10.72
2019-05-05T15:11:28.810Z,10.52
2019-05-05T15:13:58.256Z,10.34
2019-05-05T15:16:29.328Z,10.37
2019-05-05T15:18:58.732Z,9.96
2019-05-05T15:21:28.208Z,10.43
2019-05-05T15:23:57.960Z,10.38
2019-05-05T15:26:27.394Z,10.16
2019-05-05T15:29:01.388Z,10.21
2019-05-05T15:31:28.109Z,9.90
2019-05-05T15:33:57.586Z,9.81
2019-05-05T15:36:29.450Z,9.35
2019-05-05T15:38:58.225Z,8.90
2019-05-05T15:41:27.808Z,9.00
2019-05-05T15:43:57.413Z,9.18
2019-05-05T15:46:27.833Z,9.52
2019-05-05T15:48:58.170Z,9.63
2019-05-05T15:51:27.598Z,9.89
2019-05-05T15:53:57.056Z,9.72
2019-05-05T15:56:26.526Z,10.19
2019-05-05T15:58:56.061Z,10.72
2019-05-05T16:01:25.635Z,11.76
2019-05-05T16:03:55.129Z,11.96
2019-05-05T16:06:24.567Z,12.29
2019-05-05T16:08:56.456Z,11.92
2019-05-05T16:11:28.551Z,12.24
2019-05-05T16:13:58.042Z,11.68
2019-05-05T16:16:41.237Z,11.18
2019-05-05T16:19:28.807Z,10.59
2019-05-05T16:22:00.085Z,9.96
2019-05-05T16:24:36.489Z,9.71
2019-05-05T16:27:18.404Z,9.46
2019-05-05T16:29:36.195Z,10.17
2019-05-05T16:32:18.417Z,10.23
2019-05-05T16:34:36.823Z,9.93
2019-05-05T16:37:06.269Z,10.59
2019-05-05T16:39:36.081Z,10.48
2019-05-05T16:42:05.618Z,11.05
2019-05-05T16:44:35.063Z,10.91
2019-05-05T16:47:04.815Z,11.14
2019-05-05T16:49:35.487Z,11.33
2019-05-05T16:52:06.740Z,10.78
2019-05-05T16:54:39.426Z,10.34
2019-05-05T16:57:08.868Z,10.68
2019-05-05T16:59:38.308Z,10.94
2019-05-05T17:02:07.776Z,11.30
2019-05-05T17:04:37.244Z,11.32
2019-05-05T17:07:06.954Z,12.29
2019-05-05T17:09:36.795Z,12.30
2019-05-05T17:12:09.640Z,11.60
2019-05-05T17:14:58.787Z,11.73
2019-05-05T17:17:34.083Z,10.76
2019-05-05T17:20:16.122Z,10.66
2019-05-05T17:22:47.368Z,11.08
2019-05-05T17:25:17.244Z,10.65
2019-05-05T17:27:50.477Z,10.06
2019-05-05T17:30:19.910Z,9.36
2019-05-05T17:32:49.332Z,9.82
2019-05-05T17:35:18.869Z,10.18
2019-05-05T17:37:48.266Z,10.10
2019-05-05T17:40:19.436Z,10.07
2019-05-05T17:42:59.764Z,10.03
2019-05-05T17:45:50.840Z,10.06
2019-05-05T17:48:23.744Z,10.09
2019-05-05T17:50:54.944Z,9.42
2019-05-05T17:53:34.991Z,8.93
2019-05-05T17:56:06.140Z,8.74
2019-05-05T17:58:35.563Z,8.46
2019-05-05T18:01:05.268Z,8.24
2019-05-05T18:03:34.694Z,8.10
2019-05-05T18:06:23.603Z,8.07
2019-05-05T18:08:54.855Z,7.87
2019-05-05T18:11:35.348Z,7.66
2019-05-05T18:14:19.441Z,7.55
2019-05-05T18:16:50.428Z,7.52
2019-05-05T18:19:19.968Z,7.44
2019-05-05T18:21:49.394Z,7.40
2019-05-05T18:24:18.838Z,7.43
2019-05-05T18:26:48.243Z,6.83
2019-05-05T18:29:19.231Z,6.49
2019-05-05T18:31:48.636Z,6.48
2019-05-05T18:34:18.595Z,6.54
2019-05-05T18:36:48.040Z,6.41
2019-05-05T18:39:17.454Z,6.32
2019-05-05T18:41:54.536Z,6.28
2019-05-05T18:44:25.599Z,6.17
2019-05-05T18:47:15.624Z,6.06
2019-05-05T18:49:44.072Z,6.01
2019-05-05T18:52:13.969Z,5.96
2019-05-05T18:54:45.047Z,5.94
2019-05-05T18:57:14.674Z,5.89
2019-05-05T18:59:44.726Z,5.88
2019-05-05T19:02:18.447Z,5.85
2019-05-05T19:05:00.103Z,5.82
2019-05-05T19:07:35.346Z,5.77
2019-05-05T19:10:07.218Z,5.79
2019-05-05T19:12:36.939Z,5.76
2019-05-05T19:15:07.655Z,5.73
2019-05-05T19:17:37.134Z,5.72
2019-05-05T19:20:14.558Z,5.71
2019-05-05T19:22:43.755Z,5.74
2019-05-05T19:25:16.132Z,5.78
2019-05-05T19:27:46.452Z,5.71
2019-05-05T19:30:17.513Z,5.76
2019-05-05T19:32:46.939Z,5.83
2019-05-05T19:35:16.476Z,5.78
2019-05-05T19:37:45.874Z,5.83
2019-05-05T19:40:15.382Z,5.77
2019-05-05T19:42:46.311Z,5.77
2019-05-05T19:45:16.150Z,5.80
2019-05-05T19:47:45.626Z,5.78
2019-05-05T19:50:17.343Z,5.77
2019-05-05T19:52:46.942Z,5.79
2019-05-05T19:55:16.359Z,5.87
2019-05-05T19:57:45.933Z,5.93
2019-05-05T20:00:15.639Z,5.91
2019-05-05T20:02:45.490Z,5.88
2019-05-05T20:05:16.435Z,5.84
2019-05-05T20:07:45.873Z,5.86
2019-05-05T20:10:15.650Z,5.85
2019-05-05T20:12:47.011Z,5.84
2019-05-05T20:15:33.720Z,5.77
2019-05-05T20:18:04.681Z,5.72
2019-05-05T20:20:35.687Z,5.68
2019-05-05T20:23:05.122Z,5.64
2019-05-05T20:25:34.575Z,5.60
2019-05-05T20:28:05.530Z,5.52
2019-05-05T20:30:34.979Z,5.51
2019-05-05T20:33:13.901Z,5.48
2019-05-05T20:35:45.683Z,5.46
2019-05-05T20:38:29.091Z,5.38
2019-05-05T20:41:14.214Z,5.34
2019-05-05T20:43:44.738Z,5.30
2019-05-05T20:46:14.668Z,5.23
2019-05-05T20:48:44.829Z,5.17
2019-05-05T20:51:14.553Z,5.09
2019-05-05T20:53:44.696Z,4.98
2019-05-05T20:56:15.354Z,5.02
2019-05-05T20:58:44.826Z,5.02
2019-05-05T21:01:14.363Z,5.01
2019-05-05T21:03:43.771Z,4.95
2019-05-05T21:06:14.000Z,4.94
2019-05-05T21:08:44.135Z,4.92
2019-05-05T21:11:14.275Z,4.92
2019-05-05T21:13:45.158Z,4.86
2019-05-05T21:16:14.807Z,4.85
2019-05-05T21:18:44.184Z,4.80
2019-05-05T21:21:15.283Z,4.84
2019-05-05T21:23:46.340Z,4.88
2019-05-05T21:26:17.505Z,4.93
2019-05-05T21:28:46.916Z,4.94
2019-05-05T21:31:16.352Z,4.97
2019-05-05T21:33:45.768Z,4.99
2019-05-05T21:36:15.337Z,5.02
2019-05-05T21:38:44.738Z,5.10
2019-05-05T21:41:14.305Z,5.14
2019-05-05T21:43:44.869Z,5.13
2019-05-05T21:46:14.506Z,5.13
2019-05-05T21:48:44.890Z,5.26
2019-05-05T21:51:23.965Z,5.22
2019-05-05T21:54:11.306Z,5.32
2019-05-05T21:56:54.613Z,5.35
2019-05-05T21:59:24.113Z,5.43
2019-05-05T22:01:53.634Z,5.49
2019-05-05T22:04:23.917Z,5.50
2019-05-05T22:06:54.914Z,5.52
2019-05-05T22:09:27.006Z,5.52
2019-05-05T22:11:56.472Z,5.60
2019-05-05T22:14:25.922Z,5.63
2019-05-05T22:16:55.453Z,5.60
2019-05-05T22:19:27.377Z,5.64
2019-05-05T22:21:58.475Z,5.61
2019-05-05T22:24:27.892Z,5.61
2019-05-05T22:26:57.327Z,5.63
2019-05-05T22:29:26.721Z,5.56
2019-05-05T22:31:56.156Z,5.50
2019-05-05T22:34:25.631Z,5.46
2019-05-05T22:36:55.140Z,5.40
2019-05-05T22:39:24.576Z,5.40
2019-05-05T22:41:55.620Z,5.31
2019-05-05T22:44:25.062Z,5.29
2019-05-05T22:46:54.541Z,5.26
2019-05-05T22:49:24.321Z,5.17
2019-05-05T22:51:54.241Z,5.11
2019-05-05T22:54:24.171Z,5.12
2019-05-05T22:56:54.066Z,5.08
2019-05-05T22:59:26.121Z,5.06
2019-05-05T23:01:54.836Z,5.01
2019-05-05T23:04:29.150Z,4.99
2019-05-05T23:07:00.209Z,4.99
2019-05-05T23:09:29.711Z,4.97
2019-05-05T23:12:00.704Z,4.98
2019-05-05T23:14:34.104Z,4.95
2019-05-05T23:17:16.519Z,4.97
2019-05-05T23:20:05.295Z,4.94
2019-05-05T23:22:51.650Z,4.91
2019-05-05T23:25:34.978Z,4.94
2019-05-05T23:28:04.383Z,4.95
2019-05-05T23:30:41.464Z,4.91
2019-05-05T23:33:06.504Z,4.93
2019-05-05T23:35:36.148Z,4.94
2019-05-05T23:38:05.547Z,4.92
2019-05-05T23:40:35.224Z,4.93
2019-05-05T23:43:04.698Z,4.91
2019-05-05T23:45:34.304Z,4.88
2019-05-05T23:48:03.865Z,4.87
2019-05-05T23:50:33.815Z,4.85
2019-05-05T23:53:03.384Z,4.88
2019-05-05T23:55:34.431Z,4.92
2019-05-05T23:58:03.958Z,4.92
